sensor_id;sensor_type;location;lat;lon;timestamp;P1;durP1;ratioP1;P2;durP2;ratioP2
12587;SDS011;6359;51.450;7.346;2023-03-01T00:01:27;12.83;;;8.40;;
12587;SDS011;6359;51.450;7.346;2023-03-01T00:03:55;16.00;;;9.13;;
12587;SDS011;6359;51.450;7.346;2023-03-01T00:06:24;14.17;;;9.07;;
12587;SDS011;6359;51.450;7.346;2023-03-01T00:08:51;16.10;;;8.57;;
12587;SDS011;6359;51.450;7.346;2023-03-01T00:11:20;12.23;;;8.27;;
12587;SDS011;6359;51.450;7.346;2023-03-01T00:13:49;11.93;;;8.47;;
12587;SDS011;6359;51.450;7.346;2023-03-01T00:16:18;14.90;;;8.83;;
12587;SDS011;6359;51.450;7.346;2023-03-01T00:18:46;19.27;;;9.20;;
12587;SDS011;6359;51.450;7.346;2023-03-01T00:21:13;14.70;;;8.20;;
12587;SDS011;6359;51.450;7.346;2023-03-01T00:23:40;12.23;;;7.77;;
12587;SDS011;6359;51.450;7.346;2023-03-01T00:26:08;12.47;;;8.00;;
12587;SDS011;6359;51.450;7.346;2023-03-01T00:28:38;13.07;;;8.20;;
12587;SDS011;6359;51.450;7.346;2023-03-01T00:31:05;14.33;;;8.27;;
12587;SDS011;6359;51.450;7.346;2023-03-01T00:33:33;15.93;;;9.30;;
12587;SDS011;6359;51.450;7.346;2023-03-01T00:36:00;10.53;;;7.47;;
12587;SDS011;6359;51.450;7.346;2023-03-01T00:38:27;11.87;;;7.87;;
12587;SDS011;6359;51.450;7.346;2023-03-01T00:40:54;14.03;;;8.47;;
12587;SDS011;6359;51.450;7.346;2023-03-01T00:43:21;10.90;;;8.13;;
12587;SDS011;6359;51.450;7.346;2023-03-01T00:45:49;12.63;;;8.60;;
12587;SDS011;6359;51.450;7.346;2023-03-01T00:48:16;13.60;;;8.20;;
12587;SDS011;6359;51.450;7.346;2023-03-01T00:50:43;12.17;;;8.50;;
12587;SDS011;6359;51.450;7.346;2023-03-01T00:53:10;10.37;;;8.00;;
12587;SDS011;6359;51.450;7.346;2023-03-01T00:55:37;14.30;;;8.67;;
12587;SDS011;6359;51.450;7.346;2023-03-01T00:58:04;16.03;;;8.00;;
12587;SDS011;6359;51.450;7.346;2023-03-01T01:00:30;13.70;;;8.50;;
12587;SDS011;6359;51.450;7.346;2023-03-01T01:02:59;10.57;;;7.87;;
12587;SDS011;6359;51.450;7.346;2023-03-01T01:05:26;10.40;;;7.63;;
12587;SDS011;6359;51.450;7.346;2023-03-01T01:07:52;13.23;;;9.23;;
12587;SDS011;6359;51.450;7.346;2023-03-01T01:10:19;12.67;;;8.63;;
12587;SDS011;6359;51.450;7.346;2023-03-01T01:12:46;15.43;;;8.60;;
12587;SDS011;6359;51.450;7.346;2023-03-01T01:15:13;16.63;;;8.33;;
12587;SDS011;6359;51.450;7.346;2023-03-01T01:17:41;19.50;;;8.57;;
12587;SDS011;6359;51.450;7.346;2023-03-01T01:20:10;14.33;;;9.73;;
12587;SDS011;6359;51.450;7.346;2023-03-01T01:22:38;16.93;;;9.67;;
12587;SDS011;6359;51.450;7.346;2023-03-01T01:25:05;18.07;;;8.57;;
12587;SDS011;6359;51.450;7.346;2023-03-01T01:27:32;15.20;;;8.10;;
12587;SDS011;6359;51.450;7.346;2023-03-01T01:29:59;12.43;;;8.07;;
12587;SDS011;6359;51.450;7.346;2023-03-01T01:32:26;12.07;;;8.00;;
12587;SDS011;6359;51.450;7.346;2023-03-01T01:34:52;15.40;;;8.37;;
12587;SDS011;6359;51.450;7.346;2023-03-01T01:37:21;16.10;;;9.73;;
12587;SDS011;6359;51.450;7.346;2023-03-01T01:39:54;13.37;;;8.33;;
12587;SDS011;6359;51.450;7.346;2023-03-01T01:42:21;15.70;;;8.97;;
12587;SDS011;6359;51.450;7.346;2023-03-01T01:44:48;12.40;;;8.17;;
12587;SDS011;6359;51.450;7.346;2023-03-01T01:47:34;10.37;;;7.83;;
12587;SDS011;6359;51.450;7.346;2023-03-01T01:50:01;12.50;;;7.93;;
12587;SDS011;6359;51.450;7.346;2023-03-01T01:52:31;14.27;;;8.90;;
12587;SDS011;6359;51.450;7.346;2023-03-01T01:55:02;14.70;;;8.87;;
12587;SDS011;6359;51.450;7.346;2023-03-01T01:57:32;13.53;;;8.93;;
12587;SDS011;6359;51.450;7.346;2023-03-01T02:00:03;12.40;;;8.63;;
12587;SDS011;6359;51.450;7.346;2023-03-01T02:02:33;11.40;;;8.30;;
12587;SDS011;6359;51.450;7.346;2023-03-01T02:05:02;11.83;;;8.83;;
12587;SDS011;6359;51.450;7.346;2023-03-01T02:07:36;17.33;;;8.90;;
12587;SDS011;6359;51.450;7.346;2023-03-01T02:10:05;14.73;;;9.93;;
12587;SDS011;6359;51.450;7.346;2023-03-01T02:12:33;13.03;;;9.50;;
12587;SDS011;6359;51.450;7.346;2023-03-01T02:15:02;16.47;;;9.60;;
12587;SDS011;6359;51.450;7.346;2023-03-01T02:17:30;12.87;;;9.47;;
12587;SDS011;6359;51.450;7.346;2023-03-01T02:20:02;16.17;;;10.03;;
12587;SDS011;6359;51.450;7.346;2023-03-01T02:22:40;12.03;;;9.00;;
12587;SDS011;6359;51.450;7.346;2023-03-01T02:25:12;13.07;;;10.07;;
12587;SDS011;6359;51.450;7.346;2023-03-01T02:27:54;15.27;;;9.50;;
12587;SDS011;6359;51.450;7.346;2023-03-01T02:30:27;15.07;;;8.67;;
12587;SDS011;6359;51.450;7.346;2023-03-01T02:32:56;14.67;;;10.00;;
12587;SDS011;6359;51.450;7.346;2023-03-01T02:35:27;12.77;;;8.67;;
12587;SDS011;6359;51.450;7.346;2023-03-01T02:37:58;12.37;;;8.93;;
12587;SDS011;6359;51.450;7.346;2023-03-01T02:40:25;12.53;;;9.50;;
12587;SDS011;6359;51.450;7.346;2023-03-01T02:42:56;17.27;;;10.47;;
12587;SDS011;6359;51.450;7.346;2023-03-01T02:45:25;12.67;;;9.43;;
12587;SDS011;6359;51.450;7.346;2023-03-01T02:47:54;19.97;;;10.30;;
12587;SDS011;6359;51.450;7.346;2023-03-01T02:50:25;26.53;;;10.90;;
12587;SDS011;6359;51.450;7.346;2023-03-01T02:53:11;13.87;;;9.60;;
12587;SDS011;6359;51.450;7.346;2023-03-01T02:55:42;19.03;;;9.73;;
12587;SDS011;6359;51.450;7.346;2023-03-01T02:58:09;15.23;;;9.43;;
12587;SDS011;6359;51.450;7.346;2023-03-01T03:00:37;16.73;;;10.13;;
12587;SDS011;6359;51.450;7.346;2023-03-01T03:03:11;17.00;;;9.90;;
12587;SDS011;6359;51.450;7.346;2023-03-01T03:05:40;14.70;;;10.30;;
12587;SDS011;6359;51.450;7.346;2023-03-01T03:08:07;17.70;;;8.70;;
12587;SDS011;6359;51.450;7.346;2023-03-01T03:10:34;14.03;;;9.33;;
12587;SDS011;6359;51.450;7.346;2023-03-01T03:13:04;15.50;;;9.50;;
12587;SDS011;6359;51.450;7.346;2023-03-01T03:15:32;11.03;;;8.70;;
12587;SDS011;6359;51.450;7.346;2023-03-01T03:18:01;11.33;;;9.00;;
12587;SDS011;6359;51.450;7.346;2023-03-01T03:20:31;13.80;;;9.30;;
12587;SDS011;6359;51.450;7.346;2023-03-01T03:22:58;14.00;;;8.93;;
12587;SDS011;6359;51.450;7.346;2023-03-01T03:25:26;14.80;;;8.63;;
12587;SDS011;6359;51.450;7.346;2023-03-01T03:27:54;17.20;;;9.60;;
12587;SDS011;6359;51.450;7.346;2023-03-01T03:30:23;13.50;;;8.77;;
12587;SDS011;6359;51.450;7.346;2023-03-01T03:32:52;14.23;;;9.60;;
12587;SDS011;6359;51.450;7.346;2023-03-01T03:35:20;14.37;;;9.50;;
12587;SDS011;6359;51.450;7.346;2023-03-01T03:37:49;15.20;;;9.77;;
12587;SDS011;6359;51.450;7.346;2023-03-01T03:40:29;15.13;;;9.60;;
12587;SDS011;6359;51.450;7.346;2023-03-01T03:42:58;16.27;;;9.77;;
12587;SDS011;6359;51.450;7.346;2023-03-01T03:45:24;18.20;;;9.47;;
12587;SDS011;6359;51.450;7.346;2023-03-01T03:47:51;19.20;;;9.67;;
12587;SDS011;6359;51.450;7.346;2023-03-01T03:50:18;14.43;;;10.30;;
12587;SDS011;6359;51.450;7.346;2023-03-01T03:52:45;21.80;;;10.93;;
12587;SDS011;6359;51.450;7.346;2023-03-01T03:55:13;18.60;;;10.63;;
12587;SDS011;6359;51.450;7.346;2023-03-01T03:57:44;15.43;;;10.87;;
12587;SDS011;6359;51.450;7.346;2023-03-01T04:00:16;14.50;;;9.80;;
12587;SDS011;6359;51.450;7.346;2023-03-01T04:02:45;17.43;;;11.20;;
12587;SDS011;6359;51.450;7.346;2023-03-01T04:05:13;14.53;;;9.90;;
12587;SDS011;6359;51.450;7.346;2023-03-01T04:07:41;14.03;;;9.50;;
12587;SDS011;6359;51.450;7.346;2023-03-01T04:10:09;17.80;;;9.93;;
12587;SDS011;6359;51.450;7.346;2023-03-01T04:12:39;17.97;;;10.43;;
12587;SDS011;6359;51.450;7.346;2023-03-01T04:15:08;17.27;;;10.13;;
12587;SDS011;6359;51.450;7.346;2023-03-01T04:17:38;13.83;;;9.30;;
12587;SDS011;6359;51.450;7.346;2023-03-01T04:20:07;13.93;;;9.50;;
12587;SDS011;6359;51.450;7.346;2023-03-01T04:22:36;14.00;;;9.13;;
12587;SDS011;6359;51.450;7.346;2023-03-01T04:25:03;18.50;;;10.23;;
12587;SDS011;6359;51.450;7.346;2023-03-01T04:27:31;14.77;;;9.83;;
12587;SDS011;6359;51.450;7.346;2023-03-01T04:29:59;13.63;;;8.90;;
12587;SDS011;6359;51.450;7.346;2023-03-01T04:32:27;12.87;;;9.50;;
12587;SDS011;6359;51.450;7.346;2023-03-01T04:34:53;15.30;;;10.23;;
12587;SDS011;6359;51.450;7.346;2023-03-01T04:37:20;14.87;;;10.17;;
12587;SDS011;6359;51.450;7.346;2023-03-01T04:39:48;15.23;;;10.13;;
12587;SDS011;6359;51.450;7.346;2023-03-01T04:42:15;13.60;;;9.43;;
12587;SDS011;6359;51.450;7.346;2023-03-01T04:44:42;17.70;;;10.40;;
12587;SDS011;6359;51.450;7.346;2023-03-01T04:47:11;16.40;;;10.23;;
12587;SDS011;6359;51.450;7.346;2023-03-01T04:49:38;14.50;;;10.00;;
12587;SDS011;6359;51.450;7.346;2023-03-01T04:52:05;14.83;;;8.93;;
12587;SDS011;6359;51.450;7.346;2023-03-01T04:54:32;16.47;;;9.63;;
12587;SDS011;6359;51.450;7.346;2023-03-01T04:57:00;16.40;;;9.73;;
12587;SDS011;6359;51.450;7.346;2023-03-01T04:59:27;16.37;;;10.03;;
12587;SDS011;6359;51.450;7.346;2023-03-01T05:01:54;21.63;;;10.60;;
12587;SDS011;6359;51.450;7.346;2023-03-01T05:04:23;15.70;;;9.33;;
12587;SDS011;6359;51.450;7.346;2023-03-01T05:06:50;15.43;;;9.70;;
12587;SDS011;6359;51.450;7.346;2023-03-01T05:09:18;13.67;;;9.73;;
12587;SDS011;6359;51.450;7.346;2023-03-01T05:11:45;15.63;;;9.30;;
12587;SDS011;6359;51.450;7.346;2023-03-01T05:14:12;15.53;;;10.50;;
12587;SDS011;6359;51.450;7.346;2023-03-01T05:16:39;16.60;;;9.93;;
12587;SDS011;6359;51.450;7.346;2023-03-01T05:19:06;14.50;;;9.63;;
12587;SDS011;6359;51.450;7.346;2023-03-01T05:21:41;19.53;;;10.20;;
12587;SDS011;6359;51.450;7.346;2023-03-01T05:24:29;14.67;;;10.20;;
12587;SDS011;6359;51.450;7.346;2023-03-01T05:26:57;23.83;;;10.67;;
12587;SDS011;6359;51.450;7.346;2023-03-01T05:29:25;22.83;;;11.23;;
12587;SDS011;6359;51.450;7.346;2023-03-01T05:31:52;18.07;;;10.67;;
12587;SDS011;6359;51.450;7.346;2023-03-01T05:34:22;17.33;;;10.97;;
12587;SDS011;6359;51.450;7.346;2023-03-01T05:36:52;18.43;;;11.07;;
12587;SDS011;6359;51.450;7.346;2023-03-01T05:39:19;17.13;;;10.33;;
12587;SDS011;6359;51.450;7.346;2023-03-01T05:41:47;17.30;;;10.50;;
12587;SDS011;6359;51.450;7.346;2023-03-01T05:44:14;15.50;;;11.40;;
12587;SDS011;6359;51.450;7.346;2023-03-01T05:46:41;16.23;;;10.70;;
12587;SDS011;6359;51.450;7.346;2023-03-01T05:49:08;19.57;;;11.00;;
12587;SDS011;6359;51.450;7.346;2023-03-01T05:51:35;16.70;;;9.93;;
12587;SDS011;6359;51.450;7.346;2023-03-01T05:54:03;18.23;;;11.37;;
12587;SDS011;6359;51.450;7.346;2023-03-01T05:56:31;19.53;;;11.20;;
12587;SDS011;6359;51.450;7.346;2023-03-01T05:58:59;18.87;;;11.20;;
12587;SDS011;6359;51.450;7.346;2023-03-01T06:01:26;18.00;;;11.07;;
12587;SDS011;6359;51.450;7.346;2023-03-01T06:03:53;19.93;;;10.77;;
12587;SDS011;6359;51.450;7.346;2023-03-01T06:06:19;15.30;;;11.33;;
12587;SDS011;6359;51.450;7.346;2023-03-01T06:08:46;23.47;;;11.10;;
12587;SDS011;6359;51.450;7.346;2023-03-01T06:11:14;18.40;;;11.63;;
12587;SDS011;6359;51.450;7.346;2023-03-01T06:13:41;22.53;;;12.13;;
12587;SDS011;6359;51.450;7.346;2023-03-01T06:16:09;25.37;;;13.93;;
12587;SDS011;6359;51.450;7.346;2023-03-01T06:18:36;20.83;;;12.70;;
12587;SDS011;6359;51.450;7.346;2023-03-01T06:21:03;23.93;;;12.43;;
12587;SDS011;6359;51.450;7.346;2023-03-01T06:23:31;18.40;;;11.20;;
12587;SDS011;6359;51.450;7.346;2023-03-01T06:25:58;19.70;;;12.67;;
12587;SDS011;6359;51.450;7.346;2023-03-01T06:28:26;21.93;;;12.87;;
12587;SDS011;6359;51.450;7.346;2023-03-01T06:30:53;19.33;;;12.10;;
12587;SDS011;6359;51.450;7.346;2023-03-01T06:33:20;21.27;;;12.37;;
12587;SDS011;6359;51.450;7.346;2023-03-01T06:35:49;20.60;;;13.10;;
12587;SDS011;6359;51.450;7.346;2023-03-01T06:38:16;21.83;;;12.83;;
12587;SDS011;6359;51.450;7.346;2023-03-01T06:40:44;24.87;;;13.23;;
12587;SDS011;6359;51.450;7.346;2023-03-01T06:43:11;20.53;;;13.60;;
12587;SDS011;6359;51.450;7.346;2023-03-01T06:45:39;22.73;;;13.73;;
12587;SDS011;6359;51.450;7.346;2023-03-01T06:48:06;22.70;;;13.50;;
12587;SDS011;6359;51.450;7.346;2023-03-01T06:50:33;23.87;;;13.70;;
12587;SDS011;6359;51.450;7.346;2023-03-01T06:53:01;22.70;;;13.63;;
12587;SDS011;6359;51.450;7.346;2023-03-01T06:55:28;27.60;;;14.63;;
12587;SDS011;6359;51.450;7.346;2023-03-01T06:57:55;21.57;;;13.63;;
12587;SDS011;6359;51.450;7.346;2023-03-01T07:00:23;30.23;;;14.97;;
12587;SDS011;6359;51.450;7.346;2023-03-01T07:02:52;21.00;;;13.23;;
12587;SDS011;6359;51.450;7.346;2023-03-01T07:05:19;21.07;;;13.93;;
12587;SDS011;6359;51.450;7.346;2023-03-01T07:07:46;23.23;;;13.37;;
12587;SDS011;6359;51.450;7.346;2023-03-01T07:10:13;26.27;;;13.73;;
12587;SDS011;6359;51.450;7.346;2023-03-01T07:12:40;21.80;;;12.63;;
12587;SDS011;6359;51.450;7.346;2023-03-01T07:15:07;24.03;;;13.63;;
12587;SDS011;6359;51.450;7.346;2023-03-01T07:17:35;19.47;;;12.87;;
12587;SDS011;6359;51.450;7.346;2023-03-01T07:20:04;18.57;;;12.13;;
12587;SDS011;6359;51.450;7.346;2023-03-01T07:22:31;18.87;;;12.37;;
12587;SDS011;6359;51.450;7.346;2023-03-01T07:24:58;19.97;;;12.07;;
12587;SDS011;6359;51.450;7.346;2023-03-01T07:27:25;21.40;;;13.03;;
12587;SDS011;6359;51.450;7.346;2023-03-01T07:29:52;22.57;;;12.10;;
12587;SDS011;6359;51.450;7.346;2023-03-01T07:32:18;23.13;;;12.73;;
12587;SDS011;6359;51.450;7.346;2023-03-01T07:34:45;18.10;;;12.30;;
12587;SDS011;6359;51.450;7.346;2023-03-01T07:37:14;19.80;;;12.23;;
12587;SDS011;6359;51.450;7.346;2023-03-01T07:39:40;22.53;;;12.30;;
12587;SDS011;6359;51.450;7.346;2023-03-01T07:42:07;20.53;;;12.40;;
12587;SDS011;6359;51.450;7.346;2023-03-01T07:44:34;18.60;;;11.37;;
12587;SDS011;6359;51.450;7.346;2023-03-01T07:47:02;18.17;;;11.80;;
12587;SDS011;6359;51.450;7.346;2023-03-01T07:49:29;17.87;;;11.73;;
12587;SDS011;6359;51.450;7.346;2023-03-01T07:51:56;18.97;;;12.80;;
12587;SDS011;6359;51.450;7.346;2023-03-01T07:54:24;18.57;;;11.70;;
12587;SDS011;6359;51.450;7.346;2023-03-01T07:56:52;15.37;;;11.23;;
12587;SDS011;6359;51.450;7.346;2023-03-01T07:59:19;19.20;;;11.30;;
12587;SDS011;6359;51.450;7.346;2023-03-01T08:01:48;17.53;;;10.63;;
12587;SDS011;6359;51.450;7.346;2023-03-01T08:04:15;13.00;;;9.48;;
12587;SDS011;6359;51.450;7.346;2023-03-01T08:06:42;9.35;;;7.57;;
12587;SDS011;6359;51.450;7.346;2023-03-01T08:09:09;12.40;;;7.50;;
12587;SDS011;6359;51.450;7.346;2023-03-01T08:11:37;10.32;;;6.85;;
12587;SDS011;6359;51.450;7.346;2023-03-01T08:14:05;17.55;;;6.85;;
12587;SDS011;6359;51.450;7.346;2023-03-01T08:16:32;9.23;;;6.50;;
12587;SDS011;6359;51.450;7.346;2023-03-01T08:19:03;10.35;;;6.60;;
12587;SDS011;6359;51.450;7.346;2023-03-01T08:21:30;8.57;;;6.70;;
12587;SDS011;6359;51.450;7.346;2023-03-01T08:23:57;7.25;;;5.70;;
12587;SDS011;6359;51.450;7.346;2023-03-01T08:26:24;10.77;;;6.68;;
12587;SDS011;6359;51.450;7.346;2023-03-01T08:28:52;10.43;;;6.43;;
12587;SDS011;6359;51.450;7.346;2023-03-01T08:31:20;8.70;;;6.28;;
12587;SDS011;6359;51.450;7.346;2023-03-01T08:33:48;6.55;;;5.63;;
12587;SDS011;6359;51.450;7.346;2023-03-01T08:36:20;12.30;;;5.85;;
12587;SDS011;6359;51.450;7.346;2023-03-01T08:38:47;8.48;;;5.65;;
12587;SDS011;6359;51.450;7.346;2023-03-01T08:41:15;12.20;;;5.95;;
12587;SDS011;6359;51.450;7.346;2023-03-01T08:43:42;7.82;;;5.53;;
12587;SDS011;6359;51.450;7.346;2023-03-01T08:46:10;7.53;;;5.40;;
12587;SDS011;6359;51.450;7.346;2023-03-01T08:48:38;9.45;;;5.53;;
12587;SDS011;6359;51.450;7.346;2023-03-01T08:51:09;6.63;;;5.38;;
12587;SDS011;6359;51.450;7.346;2023-03-01T08:53:36;9.85;;;6.25;;
12587;SDS011;6359;51.450;7.346;2023-03-01T08:56:03;12.55;;;5.85;;
12587;SDS011;6359;51.450;7.346;2023-03-01T08:58:30;11.15;;;6.20;;
12587;SDS011;6359;51.450;7.346;2023-03-01T09:00:58;7.07;;;5.38;;
12587;SDS011;6359;51.450;7.346;2023-03-01T09:03:26;8.50;;;6.07;;
12587;SDS011;6359;51.450;7.346;2023-03-01T09:05:53;8.30;;;5.75;;
12587;SDS011;6359;51.450;7.346;2023-03-01T09:08:26;11.93;;;6.63;;
12587;SDS011;6359;51.450;7.346;2023-03-01T09:10:53;8.63;;;5.70;;
12587;SDS011;6359;51.450;7.346;2023-03-01T09:13:20;8.68;;;5.70;;
12587;SDS011;6359;51.450;7.346;2023-03-01T09:15:48;9.32;;;5.78;;
12587;SDS011;6359;51.450;7.346;2023-03-01T09:18:15;10.75;;;5.72;;
12587;SDS011;6359;51.450;7.346;2023-03-01T09:20:43;9.32;;;5.18;;
12587;SDS011;6359;51.450;7.346;2023-03-01T09:23:10;10.25;;;5.35;;
12587;SDS011;6359;51.450;7.346;2023-03-01T09:25:37;7.22;;;5.03;;
12587;SDS011;6359;51.450;7.346;2023-03-01T09:28:04;6.63;;;4.78;;
12587;SDS011;6359;51.450;7.346;2023-03-01T09:30:31;8.65;;;5.28;;
12587;SDS011;6359;51.450;7.346;2023-03-01T09:32:58;8.63;;;4.55;;
12587;SDS011;6359;51.450;7.346;2023-03-01T09:35:24;6.53;;;5.07;;
12587;SDS011;6359;51.450;7.346;2023-03-01T09:37:53;6.75;;;4.97;;
12587;SDS011;6359;51.450;7.346;2023-03-01T09:40:20;6.90;;;4.82;;
12587;SDS011;6359;51.450;7.346;2023-03-01T09:42:52;9.95;;;5.22;;
12587;SDS011;6359;51.450;7.346;2023-03-01T09:45:28;6.88;;;5.07;;
12587;SDS011;6359;51.450;7.346;2023-03-01T09:47:59;11.65;;;4.93;;
12587;SDS011;6359;51.450;7.346;2023-03-01T09:50:28;6.90;;;4.80;;
12587;SDS011;6359;51.450;7.346;2023-03-01T09:53:02;8.55;;;5.47;;
12587;SDS011;6359;51.450;7.346;2023-03-01T09:55:33;8.32;;;5.65;;
12587;SDS011;6359;51.450;7.346;2023-03-01T09:58:11;6.75;;;4.93;;
12587;SDS011;6359;51.450;7.346;2023-03-01T10:01:02;8.50;;;5.40;;
12587;SDS011;6359;51.450;7.346;2023-03-01T10:03:38;12.90;;;4.57;;
12587;SDS011;6359;51.450;7.346;2023-03-01T10:06:10;6.72;;;5.07;;
12587;SDS011;6359;51.450;7.346;2023-03-01T10:08:43;9.57;;;4.97;;
12587;SDS011;6359;51.450;7.346;2023-03-01T10:11:20;4.90;;;4.40;;
12587;SDS011;6359;51.450;7.346;2023-03-01T10:13:50;7.00;;;4.50;;
12587;SDS011;6359;51.450;7.346;2023-03-01T10:16:26;5.15;;;4.38;;
12587;SDS011;6359;51.450;7.346;2023-03-01T10:19:00;7.63;;;4.65;;
12587;SDS011;6359;51.450;7.346;2023-03-01T10:21:29;9.55;;;5.25;;
12587;SDS011;6359;51.450;7.346;2023-03-01T10:24:10;8.88;;;5.30;;
12587;SDS011;6359;51.450;7.346;2023-03-01T10:26:43;6.60;;;5.10;;
12587;SDS011;6359;51.450;7.346;2023-03-01T10:29:14;7.43;;;4.95;;
12587;SDS011;6359;51.450;7.346;2023-03-01T10:31:42;7.88;;;4.30;;
12587;SDS011;6359;51.450;7.346;2023-03-01T10:34:11;5.68;;;4.80;;
12587;SDS011;6359;51.450;7.346;2023-03-01T10:36:41;8.38;;;5.45;;
12587;SDS011;6359;51.450;7.346;2023-03-01T10:39:15;7.03;;;4.57;;
12587;SDS011;6359;51.450;7.346;2023-03-01T10:41:54;6.25;;;4.47;;
12587;SDS011;6359;51.450;7.346;2023-03-01T10:44:36;6.88;;;4.35;;
12587;SDS011;6359;51.450;7.346;2023-03-01T10:47:05;10.75;;;4.90;;
12587;SDS011;6359;51.450;7.346;2023-03-01T10:49:52;7.22;;;4.95;;
12587;SDS011;6359;51.450;7.346;2023-03-01T10:52:22;7.05;;;5.10;;
12587;SDS011;6359;51.450;7.346;2023-03-01T10:54:53;9.13;;;5.00;;
12587;SDS011;6359;51.450;7.346;2023-03-01T10:57:31;13.05;;;5.13;;
12587;SDS011;6359;51.450;7.346;2023-03-01T11:00:19;5.97;;;4.45;;
12587;SDS011;6359;51.450;7.346;2023-03-01T11:02:49;10.13;;;5.38;;
12587;SDS011;6359;51.450;7.346;2023-03-01T11:05:21;8.02;;;4.53;;
12587;SDS011;6359;51.450;7.346;2023-03-01T11:07:50;6.72;;;4.85;;
12587;SDS011;6359;51.450;7.346;2023-03-01T11:10:21;10.02;;;5.70;;
12587;SDS011;6359;51.450;7.346;2023-03-01T11:12:50;6.78;;;5.25;;
12587;SDS011;6359;51.450;7.346;2023-03-01T11:15:23;7.65;;;5.13;;
12587;SDS011;6359;51.450;7.346;2023-03-01T11:17:52;7.78;;;5.05;;
12587;SDS011;6359;51.450;7.346;2023-03-01T11:20:24;7.93;;;4.75;;
12587;SDS011;6359;51.450;7.346;2023-03-01T11:22:53;8.43;;;4.97;;
12587;SDS011;6359;51.450;7.346;2023-03-01T11:25:25;7.97;;;5.50;;
12587;SDS011;6359;51.450;7.346;2023-03-01T11:27:54;7.53;;;5.15;;
12587;SDS011;6359;51.450;7.346;2023-03-01T11:30:24;12.00;;;5.18;;
12587;SDS011;6359;51.450;7.346;2023-03-01T11:33:03;11.27;;;6.13;;
12587;SDS011;6359;51.450;7.346;2023-03-01T11:35:36;10.68;;;5.30;;
12587;SDS011;6359;51.450;7.346;2023-03-01T11:38:20;8.77;;;5.93;;
12587;SDS011;6359;51.450;7.346;2023-03-01T11:40:51;9.18;;;5.50;;
12587;SDS011;6359;51.450;7.346;2023-03-01T11:43:26;10.73;;;5.03;;
12587;SDS011;6359;51.450;7.346;2023-03-01T11:46:18;10.77;;;4.93;;
12587;SDS011;6359;51.450;7.346;2023-03-01T11:49:06;9.00;;;5.53;;
12587;SDS011;6359;51.450;7.346;2023-03-01T11:51:49;6.68;;;5.00;;
12587;SDS011;6359;51.450;7.346;2023-03-01T11:54:27;6.57;;;4.70;;
12587;SDS011;6359;51.450;7.346;2023-03-01T11:57:03;7.65;;;5.57;;
12587;SDS011;6359;51.450;7.346;2023-03-01T11:59:45;8.63;;;5.57;;
12587;SDS011;6359;51.450;7.346;2023-03-01T12:02:29;11.80;;;5.25;;
12587;SDS011;6359;51.450;7.346;2023-03-01T12:08:17;11.38;;;5.82;;
12587;SDS011;6359;51.450;7.346;2023-03-01T12:10:52;8.45;;;5.30;;
12587;SDS011;6359;51.450;7.346;2023-03-01T12:13:39;9.93;;;5.35;;
12587;SDS011;6359;51.450;7.346;2023-03-01T12:16:38;13.32;;;6.07;;
12587;SDS011;6359;51.450;7.346;2023-03-01T12:19:25;13.73;;;5.45;;
12587;SDS011;6359;51.450;7.346;2023-03-01T12:22:04;12.23;;;5.50;;
12587;SDS011;6359;51.450;7.346;2023-03-01T12:24:43;7.22;;;5.00;;
12587;SDS011;6359;51.450;7.346;2023-03-01T12:28:03;8.00;;;5.40;;
12587;SDS011;6359;51.450;7.346;2023-03-01T12:33:52;13.82;;;5.60;;
12587;SDS011;6359;51.450;7.346;2023-03-01T12:36:27;9.88;;;6.07;;
12587;SDS011;6359;51.450;7.346;2023-03-01T12:39:07;11.20;;;5.60;;
12587;SDS011;6359;51.450;7.346;2023-03-01T12:41:51;9.27;;;5.25;;
12587;SDS011;6359;51.450;7.346;2023-03-01T12:44:31;12.13;;;5.90;;
12587;SDS011;6359;51.450;7.346;2023-03-01T12:47:34;6.93;;;4.88;;
12587;SDS011;6359;51.450;7.346;2023-03-01T12:50:22;7.55;;;5.10;;
12587;SDS011;6359;51.450;7.346;2023-03-01T12:52:52;7.60;;;5.82;;
12587;SDS011;6359;51.450;7.346;2023-03-01T12:55:26;11.43;;;5.35;;
12587;SDS011;6359;51.450;7.346;2023-03-01T12:58:00;8.07;;;5.25;;
12587;SDS011;6359;51.450;7.346;2023-03-01T13:00:34;6.30;;;4.60;;
12587;SDS011;6359;51.450;7.346;2023-03-01T13:03:16;7.85;;;5.32;;
12587;SDS011;6359;51.450;7.346;2023-03-01T13:05:54;10.18;;;5.10;;
12587;SDS011;6359;51.450;7.346;2023-03-01T13:08:31;9.43;;;5.45;;
12587;SDS011;6359;51.450;7.346;2023-03-01T13:11:05;7.45;;;4.88;;
12587;SDS011;6359;51.450;7.346;2023-03-01T13:13:38;7.95;;;5.63;;
12587;SDS011;6359;51.450;7.346;2023-03-01T13:19:10;7.10;;;5.00;;
12587;SDS011;6359;51.450;7.346;2023-03-01T13:21:41;10.70;;;5.88;;
12587;SDS011;6359;51.450;7.346;2023-03-01T13:24:26;7.82;;;5.70;;
12587;SDS011;6359;51.450;7.346;2023-03-01T13:27:18;10.65;;;6.13;;
12587;SDS011;6359;51.450;7.346;2023-03-01T13:29:54;10.90;;;6.45;;
12587;SDS011;6359;51.450;7.346;2023-03-01T13:32:25;9.50;;;6.07;;
12587;SDS011;6359;51.450;7.346;2023-03-01T13:34:57;10.73;;;5.43;;
12587;SDS011;6359;51.450;7.346;2023-03-01T13:37:30;7.47;;;5.20;;
12587;SDS011;6359;51.450;7.346;2023-03-01T13:39:59;10.18;;;5.07;;
12587;SDS011;6359;51.450;7.346;2023-03-01T13:42:40;10.32;;;5.57;;
12587;SDS011;6359;51.450;7.346;2023-03-01T13:45:18;8.13;;;5.20;;
12587;SDS011;6359;51.450;7.346;2023-03-01T13:47:51;8.63;;;5.43;;
12587;SDS011;6359;51.450;7.346;2023-03-01T13:50:24;11.00;;;6.05;;
12587;SDS011;6359;51.450;7.346;2023-03-01T13:52:55;9.55;;;5.63;;
12587;SDS011;6359;51.450;7.346;2023-03-01T13:55:25;11.02;;;7.32;;
12587;SDS011;6359;51.450;7.346;2023-03-01T13:57:57;8.40;;;5.40;;
12587;SDS011;6359;51.450;7.346;2023-03-01T14:00:28;6.75;;;4.88;;
12587;SDS011;6359;51.450;7.346;2023-03-01T14:03:08;6.88;;;4.47;;
12587;SDS011;6359;51.450;7.346;2023-03-01T14:05:39;14.15;;;6.40;;
12587;SDS011;6359;51.450;7.346;2023-03-01T14:08:18;7.80;;;5.13;;
12587;SDS011;6359;51.450;7.346;2023-03-01T14:10:51;8.73;;;4.97;;
12587;SDS011;6359;51.450;7.346;2023-03-01T14:13:36;8.52;;;4.85;;
12587;SDS011;6359;51.450;7.346;2023-03-01T14:16:18;9.82;;;4.90;;
12587;SDS011;6359;51.450;7.346;2023-03-01T14:18:53;11.77;;;4.80;;
12587;SDS011;6359;51.450;7.346;2023-03-01T14:21:29;7.88;;;5.05;;
12587;SDS011;6359;51.450;7.346;2023-03-01T14:23:56;6.72;;;3.83;;
12587;SDS011;6359;51.450;7.346;2023-03-01T14:26:24;9.05;;;4.95;;
12587;SDS011;6359;51.450;7.346;2023-03-01T14:28:51;6.93;;;4.88;;
12587;SDS011;6359;51.450;7.346;2023-03-01T14:34:16;9.73;;;4.75;;
12587;SDS011;6359;51.450;7.346;2023-03-01T14:36:47;7.45;;;4.20;;
12587;SDS011;6359;51.450;7.346;2023-03-01T14:39:18;5.25;;;4.53;;
12587;SDS011;6359;51.450;7.346;2023-03-01T14:41:46;10.25;;;5.13;;
12587;SDS011;6359;51.450;7.346;2023-03-01T14:44:14;12.05;;;4.72;;
12587;SDS011;6359;51.450;7.346;2023-03-01T14:46:44;11.48;;;4.47;;
12587;SDS011;6359;51.450;7.346;2023-03-01T14:49:12;8.70;;;4.63;;
12587;SDS011;6359;51.450;7.346;2023-03-01T14:51:44;9.27;;;5.18;;
12587;SDS011;6359;51.450;7.346;2023-03-01T14:54:21;7.60;;;4.82;;
12587;SDS011;6359;51.450;7.346;2023-03-01T14:56:52;6.45;;;4.45;;
12587;SDS011;6359;51.450;7.346;2023-03-01T14:59:21;8.85;;;4.32;;
12587;SDS011;6359;51.450;7.346;2023-03-01T15:01:48;8.68;;;4.80;;
12587;SDS011;6359;51.450;7.346;2023-03-01T15:04:16;7.65;;;4.80;;
12587;SDS011;6359;51.450;7.346;2023-03-01T15:06:45;12.98;;;5.65;;
12587;SDS011;6359;51.450;7.346;2023-03-01T15:09:15;4.95;;;3.80;;
12587;SDS011;6359;51.450;7.346;2023-03-01T15:11:43;6.22;;;4.53;;
12587;SDS011;6359;51.450;7.346;2023-03-01T15:14:27;6.32;;;4.70;;
12587;SDS011;6359;51.450;7.346;2023-03-01T15:16:55;5.97;;;4.53;;
12587;SDS011;6359;51.450;7.346;2023-03-01T15:19:23;5.60;;;4.35;;
12587;SDS011;6359;51.450;7.346;2023-03-01T15:21:53;11.98;;;4.95;;